sensor_id;sensor_type;location;lat;lon;timestamp;pressure;altitude;pressure_sealevel;temperature;humidity
79540;BME280;68991;52.122;5.406;2023-06-24T00:00:38;102575.88;;;23.96;52.66
79540;BME280;68991;52.122;5.406;2023-06-24T00:03:05;102579.66;;;23.95;52.56
79540;BME280;68991;52.122;5.406;2023-06-24T00:05:34;102579.75;;;23.93;52.63
79540;BME280;68991;52.122;5.406;2023-06-24T00:08:00;102580.63;;;23.94;52.64
79540;BME280;68991;52.122;5.406;2023-06-24T00:10:28;102581.63;;;23.93;52.65
79540;BME280;68991;52.122;5.406;2023-06-24T00:12:55;102587.25;;;23.91;52.57
79540;BME280;68991;52.122;5.406;2023-06-24T00:15:22;102589.13;;;23.91;52.51
79540;BME280;68991;52.122;5.406;2023-06-24T00:17:48;102581.88;;;23.90;52.69
79540;BME280;68991;52.122;5.406;2023-06-24T00:20:16;102591.97;;;23.89;52.69
79540;BME280;68991;52.122;5.406;2023-06-24T00:22:44;102591.09;;;23.89;52.72
79540;BME280;68991;52.122;5.406;2023-06-24T00:25:15;102598.44;;;23.88;52.83
79540;BME280;68991;52.122;5.406;2023-06-24T00:27:41;102596.72;;;23.87;52.79
79540;BME280;68991;52.122;5.406;2023-06-24T00:30:09;102598.59;;;23.87;52.55
79540;BME280;68991;52.122;5.406;2023-06-24T00:32:36;102601.44;;;23.85;52.66
79540;BME280;68991;52.122;5.406;2023-06-24T00:35:03;102601.59;;;23.84;52.70
79540;BME280;68991;52.122;5.406;2023-06-24T00:37:29;102591.59;;;23.83;52.69
79540;BME280;68991;52.122;5.406;2023-06-24T00:39:56;102594.22;;;23.84;52.94
79540;BME280;68991;52.122;5.406;2023-06-24T00:42:22;102591.59;;;23.83;52.85
79540;BME280;68991;52.122;5.406;2023-06-24T00:44:49;102589.72;;;23.83;53.05
79540;BME280;68991;52.122;5.406;2023-06-24T00:47:15;102587.06;;;23.82;52.75
79540;BME280;68991;52.122;5.406;2023-06-24T00:49:42;102600.81;;;23.82;52.89
79540;BME280;68991;52.122;5.406;2023-06-24T00:52:12;102591.81;;;23.79;52.85
79540;BME280;68991;52.122;5.406;2023-06-24T00:54:43;102588.19;;;23.79;53.09
79540;BME280;68991;52.122;5.406;2023-06-24T00:57:10;102593.69;;;23.79;53.11
79540;BME280;68991;52.122;5.406;2023-06-24T00:59:37;102597.41;;;23.78;53.00
79540;BME280;68991;52.122;5.406;2023-06-24T01:02:04;102591.03;;;23.77;52.96
79540;BME280;68991;52.122;5.406;2023-06-24T01:04:32;102582.94;;;23.76;53.00
79540;BME280;68991;52.122;5.406;2023-06-24T01:07:00;102581.19;;;23.75;52.98
79540;BME280;68991;52.122;5.406;2023-06-24T01:09:27;102570.34;;;23.73;52.96
79540;BME280;68991;52.122;5.406;2023-06-24T01:11:54;102569.44;;;23.73;52.90
79540;BME280;68991;52.122;5.406;2023-06-24T01:14:21;102568.56;;;23.72;52.97
79540;BME280;68991;52.122;5.406;2023-06-24T01:33:46;102568.19;;;23.66;52.98
79540;BME280;68991;52.122;5.406;2023-06-24T01:36:18;102561.81;;;23.65;53.03
79540;BME280;68991;52.122;5.406;2023-06-24T01:39:17;102572.00;;;23.63;52.82
79540;BME280;68991;52.122;5.406;2023-06-24T01:41:51;102576.53;;;23.64;53.07
79540;BME280;68991;52.122;5.406;2023-06-24T01:44:20;102580.25;;;23.63;52.73
79540;BME280;68991;52.122;5.406;2023-06-24T01:46:50;102578.53;;;23.62;52.99
79540;BME280;68991;52.122;5.406;2023-06-24T01:49:19;102571.28;;;23.61;53.16
79540;BME280;68991;52.122;5.406;2023-06-24T01:51:48;102573.28;;;23.59;53.09
79540;BME280;68991;52.122;5.406;2023-06-24T01:54:17;102575.13;;;23.59;53.05
79540;BME280;68991;52.122;5.406;2023-06-24T01:56:49;102574.25;;;23.58;53.14
79540;BME280;68991;52.122;5.406;2023-06-24T01:59:19;102570.63;;;23.58;53.10
79540;BME280;68991;52.122;5.406;2023-06-24T02:01:47;102575.25;;;23.57;53.12
79540;BME280;68991;52.122;5.406;2023-06-24T02:04:14;102572.50;;;23.57;53.04
79540;BME280;68991;52.122;5.406;2023-06-24T02:06:42;102578.97;;;23.56;53.02
79540;BME280;68991;52.122;5.406;2023-06-24T02:09:11;102571.84;;;23.54;53.13
79540;BME280;68991;52.122;5.406;2023-06-24T02:11:38;102562.72;;;23.53;53.15
79540;BME280;68991;52.122;5.406;2023-06-24T02:14:07;102563.75;;;23.52;52.99
79540;BME280;68991;52.122;5.406;2023-06-24T02:16:36;102564.75;;;23.51;53.07
79540;BME280;68991;52.122;5.406;2023-06-24T02:19:04;102557.38;;;23.52;53.17
79540;BME280;68991;52.122;5.406;2023-06-24T02:21:34;102561.22;;;23.49;52.92
79540;BME280;68991;52.122;5.406;2023-06-24T02:24:02;102558.47;;;23.49;53.28
79540;BME280;68991;52.122;5.406;2023-06-24T02:26:29;102562.09;;;23.50;52.95
79540;BME280;68991;52.122;5.406;2023-06-24T02:28:56;102549.50;;;23.47;53.22
79540;BME280;68991;52.122;5.406;2023-06-24T02:31:23;102555.97;;;23.46;53.28
79540;BME280;68991;52.122;5.406;2023-06-24T02:33:50;102558.72;;;23.46;53.57
79540;BME280;68991;52.122;5.406;2023-06-24T02:36:16;102553.34;;;23.45;53.04
79540;BME280;68991;52.122;5.406;2023-06-24T02:38:43;102548.84;;;23.44;53.25
79540;BME280;68991;52.122;5.406;2023-06-24T02:41:10;102543.47;;;23.42;53.14
79540;BME280;68991;52.122;5.406;2023-06-24T02:43:36;102543.47;;;23.42;52.99
79540;BME280;68991;52.122;5.406;2023-06-24T02:46:05;102540.81;;;23.41;53.09
79540;BME280;68991;52.122;5.406;2023-06-24T02:48:33;102542.69;;;23.40;52.85
79540;BME280;68991;52.122;5.406;2023-06-24T02:51:02;102549.16;;;23.39;52.98
79540;BME280;68991;52.122;5.406;2023-06-24T02:53:29;102551.16;;;23.37;53.03
79540;BME280;68991;52.122;5.406;2023-06-24T02:55:56;102553.91;;;23.37;53.00
79540;BME280;68991;52.122;5.406;2023-06-24T02:58:24;102549.41;;;23.36;53.17
79540;BME280;68991;52.122;5.406;2023-06-24T03:00:59;102543.03;;;23.36;53.17
79540;BME280;68991;52.122;5.406;2023-06-24T03:03:26;102546.78;;;23.35;53.04
79540;BME280;68991;52.122;5.406;2023-06-24T03:05:55;102540.41;;;23.34;52.95
79540;BME280;68991;52.122;5.406;2023-06-24T03:08:25;102541.41;;;23.33;52.89
79540;BME280;68991;52.122;5.406;2023-06-24T03:10:55;102543.25;;;23.33;53.13
79540;BME280;68991;52.122;5.406;2023-06-24T03:13:22;102543.41;;;23.31;53.25
79540;BME280;68991;52.122;5.406;2023-06-24T03:15:49;102540.66;;;23.31;53.15
79540;BME280;68991;52.122;5.406;2023-06-24T03:18:17;102538.91;;;23.30;53.16
79540;BME280;68991;52.122;5.406;2023-06-24T03:20:44;102542.63;;;23.29;52.89
79540;BME280;68991;52.122;5.406;2023-06-24T03:23:10;102546.34;;;23.28;53.09
79540;BME280;68991;52.122;5.406;2023-06-24T03:25:37;102547.38;;;23.27;53.26
79540;BME280;68991;52.122;5.406;2023-06-24T03:28:03;102542.88;;;23.26;53.10
79540;BME280;68991;52.122;5.406;2023-06-24T03:30:33;102552.97;;;23.25;53.22
79540;BME280;68991;52.122;5.406;2023-06-24T03:33:00;102557.56;;;23.25;53.16
79540;BME280;68991;52.122;5.406;2023-06-24T03:35:26;102551.19;;;23.24;53.13
79540;BME280;68991;52.122;5.406;2023-06-24T03:37:53;102552.31;;;23.22;53.05
79540;BME280;68991;52.122;5.406;2023-06-24T03:40:20;102546.81;;;23.22;52.82
79540;BME280;68991;52.122;5.406;2023-06-24T03:42:46;102549.56;;;23.22;53.17
79540;BME280;68991;52.122;5.406;2023-06-24T03:45:13;102551.44;;;23.21;53.15
79540;BME280;68991;52.122;5.406;2023-06-24T03:47:39;102554.31;;;23.20;53.08
79540;BME280;68991;52.122;5.406;2023-06-24T03:50:06;102552.56;;;23.19;52.92
79540;BME280;68991;52.122;5.406;2023-06-24T03:52:33;102549.81;;;23.19;53.08
79540;BME280;68991;52.122;5.406;2023-06-24T03:54:59;102559.03;;;23.18;53.01
79540;BME280;68991;52.122;5.406;2023-06-24T03:57:27;102546.28;;;23.17;53.09
79540;BME280;68991;52.122;5.406;2023-06-24T03:59:54;102551.78;;;23.17;53.17
79540;BME280;68991;52.122;5.406;2023-06-24T04:02:20;102554.53;;;23.17;53.04
79540;BME280;68991;52.122;5.406;2023-06-24T04:04:48;102555.63;;;23.14;52.87
79540;BME280;68991;52.122;5.406;2023-06-24T04:07:18;102553.78;;;23.15;53.18
79540;BME280;68991;52.122;5.406;2023-06-24T04:09:54;102560.25;;;23.14;52.82
79540;BME280;68991;52.122;5.406;2023-06-24T04:12:23;102552.16;;;23.12;52.96
79540;BME280;68991;52.122;5.406;2023-06-24T04:14:49;102558.50;;;23.13;52.94
79540;BME280;68991;52.122;5.406;2023-06-24T04:17:16;102559.50;;;23.12;52.83
79540;BME280;68991;52.122;5.406;2023-06-24T04:19:43;102564.97;;;23.12;52.85
79540;BME280;68991;52.122;5.406;2023-06-24T04:22:09;102562.34;;;23.10;52.97
79540;BME280;68991;52.122;5.406;2023-06-24T04:24:36;102564.97;;;23.12;52.89
79540;BME280;68991;52.122;5.406;2023-06-24T04:27:03;102565.09;;;23.10;53.25
79540;BME280;68991;52.122;5.406;2023-06-24T04:29:29;102566.09;;;23.09;52.72
79540;BME280;68991;52.122;5.406;2023-06-24T04:31:56;102561.59;;;23.08;53.04
79540;BME280;68991;52.122;5.406;2023-06-24T04:34:22;102560.63;;;23.09;52.89
79540;BME280;68991;52.122;5.406;2023-06-24T04:36:48;102560.63;;;23.09;53.10
79540;BME280;68991;52.122;5.406;2023-06-24T04:39:15;102554.25;;;23.09;52.97
79540;BME280;68991;52.122;5.406;2023-06-24T04:41:41;102553.38;;;23.08;52.89
79540;BME280;68991;52.122;5.406;2023-06-24T04:44:08;102553.47;;;23.07;53.16
79540;BME280;68991;52.122;5.406;2023-06-24T04:46:34;102555.22;;;23.08;52.99
79540;BME280;68991;52.122;5.406;2023-06-24T04:49:01;102561.59;;;23.08;52.90
79540;BME280;68991;52.122;5.406;2023-06-24T04:51:27;102563.47;;;23.08;53.17
79540;BME280;68991;52.122;5.406;2023-06-24T04:53:54;102555.22;;;23.08;52.99
79540;BME280;68991;52.122;5.406;2023-06-24T04:56:21;102563.47;;;23.08;52.86
79540;BME280;68991;52.122;5.406;2023-06-24T04:58:48;102561.59;;;23.08;53.01
79540;BME280;68991;52.122;5.406;2023-06-24T05:01:14;102562.47;;;23.09;52.93
79540;BME280;68991;52.122;5.406;2023-06-24T05:03:41;102562.47;;;23.09;53.03
79540;BME280;68991;52.122;5.406;2023-06-24T05:06:07;102566.09;;;23.09;52.86
79540;BME280;68991;52.122;5.406;2023-06-24T05:08:33;102576.06;;;23.10;53.27
79540;BME280;68991;52.122;5.406;2023-06-24T05:11:00;102577.91;;;23.10;53.31
79540;BME280;68991;52.122;5.406;2023-06-24T05:13:27;102584.19;;;23.12;53.17
79540;BME280;68991;52.122;5.406;2023-06-24T05:15:54;102584.19;;;23.12;52.93
79540;BME280;68991;52.122;5.406;2023-06-24T05:18:20;102575.19;;;23.10;53.12
79540;BME280;68991;52.122;5.406;2023-06-24T05:20:47;102572.34;;;23.11;53.13
79540;BME280;68991;52.122;5.406;2023-06-24T05:23:13;102570.47;;;23.12;53.17
79540;BME280;68991;52.122;5.406;2023-06-24T05:25:39;102577.72;;;23.13;53.12
79540;BME280;68991;52.122;5.406;2023-06-24T05:28:06;102579.44;;;23.14;53.25
79540;BME280;68991;52.122;5.406;2023-06-24T05:30:33;102578.47;;;23.15;53.33
79540;BME280;68991;52.122;5.406;2023-06-24T05:32:59;102570.25;;;23.15;53.08
79540;BME280;68991;52.122;5.406;2023-06-24T05:35:26;102568.38;;;23.15;53.13
79540;BME280;68991;52.122;5.406;2023-06-24T05:37:52;102567.38;;;23.16;53.29
79540;BME280;68991;52.122;5.406;2023-06-24T05:40:18;102573.72;;;23.17;53.26
79540;BME280;68991;52.122;5.406;2023-06-24T05:42:45;102572.75;;;23.18;53.28
79540;BME280;68991;52.122;5.406;2023-06-24T05:45:11;102582.75;;;23.19;53.28
79540;BME280;68991;52.122;5.406;2023-06-24T05:47:38;102583.63;;;23.19;53.26
79540;BME280;68991;52.122;5.406;2023-06-24T05:50:05;102579.00;;;23.20;53.14
79540;BME280;68991;52.122;5.406;2023-06-24T05:52:32;102585.25;;;23.22;53.06
79540;BME280;68991;52.122;5.406;2023-06-24T05:54:58;102579.75;;;23.22;53.12
79540;BME280;68991;52.122;5.406;2023-06-24T05:57:24;102580.66;;;23.22;53.21
79540;BME280;68991;52.122;5.406;2023-06-24T05:59:51;102579.66;;;23.23;53.31
79540;BME280;68991;52.122;5.406;2023-06-24T06:02:17;102581.38;;;23.24;53.21
79540;BME280;68991;52.122;5.406;2023-06-24T06:04:44;102589.63;;;23.24;53.39
79540;BME280;68991;52.122;5.406;2023-06-24T06:07:11;102588.63;;;23.25;53.17
79540;BME280;68991;52.122;5.406;2023-06-24T06:09:38;102592.25;;;23.26;52.96
79540;BME280;68991;52.122;5.406;2023-06-24T06:12:05;102585.78;;;23.27;53.26
79540;BME280;68991;52.122;5.406;2023-06-24T06:14:32;102587.53;;;23.28;53.12
79540;BME280;68991;52.122;5.406;2023-06-24T06:16:59;102585.66;;;23.28;53.44
79540;BME280;68991;52.122;5.406;2023-06-24T06:19:25;102582.03;;;23.28;53.38
79540;BME280;68991;52.122;5.406;2023-06-24T06:21:52;102588.31;;;23.30;53.34
79540;BME280;68991;52.122;5.406;2023-06-24T06:24:18;102580.94;;;23.30;53.22
79540;BME280;68991;52.122;5.406;2023-06-24T06:26:45;102584.56;;;23.31;53.31
79540;BME280;68991;52.122;5.406;2023-06-24T06:29:11;102590.06;;;23.31;52.94
79540;BME280;68991;52.122;5.406;2023-06-24T06:31:38;102590.81;;;23.33;53.50
79540;BME280;68991;52.122;5.406;2023-06-24T06:34:05;102588.06;;;23.33;53.27
79540;BME280;68991;52.122;5.406;2023-06-24T06:36:32;102579.72;;;23.35;52.90
79540;BME280;68991;52.122;5.406;2023-06-24T06:38:58;102588.81;;;23.35;53.40
79540;BME280;68991;52.122;5.406;2023-06-24T06:41:25;102583.31;;;23.35;53.08
79540;BME280;68991;52.122;5.406;2023-06-24T06:43:52;102587.81;;;23.36;53.03
79540;BME280;68991;52.122;5.406;2023-06-24T06:46:19;102587.81;;;23.36;53.26
79540;BME280;68991;52.122;5.406;2023-06-24T06:48:46;102592.34;;;23.37;53.16
79540;BME280;68991;52.122;5.406;2023-06-24T06:51:13;102591.34;;;23.38;53.26
79540;BME280;68991;52.122;5.406;2023-06-24T06:53:39;102593.22;;;23.38;53.09
79540;BME280;68991;52.122;5.406;2023-06-24T06:56:06;102587.59;;;23.39;52.96
79540;BME280;68991;52.122;5.406;2023-06-24T06:58:32;102584.84;;;23.39;52.97
79540;BME280;68991;52.122;5.406;2023-06-24T07:00:59;102584.75;;;23.41;53.54
79540;BME280;68991;52.122;5.406;2023-06-24T07:03:28;102590.22;;;23.41;53.26
79540;BME280;68991;52.122;5.406;2023-06-24T07:05:54;102592.03;;;23.42;53.01
79540;BME280;68991;52.122;5.406;2023-06-24T07:08:21;102586.41;;;23.43;53.17
79540;BME280;68991;52.122;5.406;2023-06-24T07:10:47;102587.38;;;23.42;53.14
79540;BME280;68991;52.122;5.406;2023-06-24T07:13:14;102589.03;;;23.45;52.89
79540;BME280;68991;52.122;5.406;2023-06-24T07:15:40;102587.19;;;23.45;53.27
79540;BME280;68991;52.122;5.406;2023-06-24T07:18:06;102588.91;;;23.46;53.32
79540;BME280;68991;52.122;5.406;2023-06-24T07:20:33;102590.66;;;23.47;53.13
79540;BME280;68991;52.122;5.406;2023-06-24T07:22:59;102595.19;;;23.48;53.02
79540;BME280;68991;52.122;5.406;2023-06-24T07:25:26;102588.81;;;23.48;52.97
79540;BME280;68991;52.122;5.406;2023-06-24T07:27:54;102596.06;;;23.49;53.10
79540;BME280;68991;52.122;5.406;2023-06-24T07:30:21;102595.94;;;23.50;52.95
79540;BME280;68991;52.122;5.406;2023-06-24T07:32:47;102598.66;;;23.50;52.91
79540;BME280;68991;52.122;5.406;2023-06-24T07:35:14;102594.94;;;23.51;52.88
79540;BME280;68991;52.122;5.406;2023-06-24T07:37:42;102593.97;;;23.52;52.74
79540;BME280;68991;52.122;5.406;2023-06-24T07:40:08;102584.69;;;23.53;52.76
79540;BME280;68991;52.122;5.406;2023-06-24T07:42:35;102599.31;;;23.54;53.04
79540;BME280;68991;52.122;5.406;2023-06-24T07:45:02;102596.56;;;23.54;53.06
79540;BME280;68991;52.122;5.406;2023-06-24T07:47:28;102587.34;;;23.55;52.94
79540;BME280;68991;52.122;5.406;2023-06-24T07:49:55;102585.47;;;23.55;52.93
79540;BME280;68991;52.122;5.406;2023-06-24T07:52:22;102588.97;;;23.57;52.83
79540;BME280;68991;52.122;5.406;2023-06-24T07:54:48;102586.22;;;23.57;52.73
79540;BME280;68991;52.122;5.406;2023-06-24T07:57:14;102580.63;;;23.59;52.69
79540;BME280;68991;52.122;5.406;2023-06-24T07:59:42;102580.63;;;23.59;52.88
79540;BME280;68991;52.122;5.406;2023-06-24T08:02:09;102585.97;;;23.60;52.89
79540;BME280;68991;52.122;5.406;2023-06-24T08:04:35;102583.25;;;23.60;52.53
79540;BME280;68991;52.122;5.406;2023-06-24T08:07:03;102586.75;;;23.62;52.92
79540;BME280;68991;52.122;5.406;2023-06-24T08:09:29;102580.25;;;23.63;52.81
79540;BME280;68991;52.122;5.406;2023-06-24T08:11:56;102575.63;;;23.64;52.89
79540;BME280;68991;52.122;5.406;2023-06-24T08:14:23;102575.53;;;23.65;52.72
79540;BME280;68991;52.122;5.406;2023-06-24T08:16:49;102587.25;;;23.67;53.11
79540;BME280;68991;52.122;5.406;2023-06-24T08:19:16;102572.53;;;23.68;52.75
79540;BME280;68991;52.122;5.406;2023-06-24T08:21:42;102579.81;;;23.69;52.49
79540;BME280;68991;52.122;5.406;2023-06-24T08:24:09;102583.28;;;23.71;52.90
79540;BME280;68991;52.122;5.406;2023-06-24T08:26:36;102574.06;;;23.72;52.99
79540;BME280;68991;52.122;5.406;2023-06-24T08:29:03;102577.56;;;23.74;52.77
79540;BME280;68991;52.122;5.406;2023-06-24T08:31:30;102578.44;;;23.75;52.88
79540;BME280;68991;52.122;5.406;2023-06-24T08:33:59;102572.06;;;23.74;52.81
79540;BME280;68991;52.122;5.406;2023-06-24T08:36:27;102579.22;;;23.77;52.90
79540;BME280;68991;52.122;5.406;2023-06-24T08:38:54;102578.19;;;23.78;52.72
79540;BME280;68991;52.122;5.406;2023-06-24T08:41:22;102579.94;;;23.79;52.75
79540;BME280;68991;52.122;5.406;2023-06-24T08:43:52;102582.59;;;23.81;52.82
79540;BME280;68991;52.122;5.406;2023-06-24T08:46:19;102580.59;;;23.83;52.80
79540;BME280;68991;52.122;5.406;2023-06-24T08:48:48;102571.38;;;23.84;52.58
79540;BME280;68991;52.122;5.406;2023-06-24T08:51:18;102575.84;;;23.85;52.68
79540;BME280;68991;52.122;5.406;2023-06-24T08:53:47;102581.22;;;23.86;52.81
79540;BME280;68991;52.122;5.406;2023-06-24T08:56:14;102570.13;;;23.88;52.59
79540;BME280;68991;52.122;5.406;2023-06-24T08:58:41;102566.38;;;23.89;52.69
79540;BME280;68991;52.122;5.406;2023-06-24T09:01:08;102574.38;;;23.92;52.55
79540;BME280;68991;52.122;5.406;2023-06-24T09:03:35;102577.00;;;23.93;52.58
79540;BME280;68991;52.122;5.406;2023-06-24T09:06:02;102565.03;;;23.94;52.49
79540;BME280;68991;52.122;5.406;2023-06-24T09:08:28;102564.88;;;23.96;52.67
79540;BME280;68991;52.122;5.406;2023-06-24T09:10:55;102570.28;;;23.97;52.50
79540;BME280;68991;52.122;5.406;2023-06-24T09:13:27;102565.53;;;23.99;52.50
79540;BME280;68991;52.122;5.406;2023-06-24T09:16:13;102564.44;;;24.02;52.44
79540;BME280;68991;52.122;5.406;2023-06-24T09:18:40;102565.16;;;24.04;52.34
79540;BME280;68991;52.122;5.406;2023-06-24T09:21:07;102564.91;;;24.07;52.25
79540;BME280;68991;52.122;5.406;2023-06-24T09:23:37;102563.06;;;24.07;52.26
79540;BME280;68991;52.122;5.406;2023-06-24T09:26:03;102565.44;;;24.12;52.31
79540;BME280;68991;52.122;5.406;2023-06-24T09:28:30;102558.84;;;24.14;52.22
79540;BME280;68991;52.122;5.406;2023-06-24T09:31:06;102561.34;;;24.17;52.31
79540;BME280;68991;52.122;5.406;2023-06-24T09:33:45;102559.22;;;24.21;52.21
79540;BME280;68991;52.122;5.406;2023-06-24T09:36:13;102559.13;;;24.22;52.19
79540;BME280;68991;52.122;5.406;2023-06-24T09:38:42;102559.88;;;24.24;51.82
79540;BME280;68991;52.122;5.406;2023-06-24T09:41:08;102543.13;;;24.27;52.08
79540;BME280;68991;52.122;5.406;2023-06-24T09:43:41;102558.50;;;24.30;52.10
79540;BME280;68991;52.122;5.406;2023-06-24T09:46:10;102552.75;;;24.33;52.15
79540;BME280;68991;52.122;5.406;2023-06-24T09:48:36;102547.13;;;24.35;51.93
79540;BME280;68991;52.122;5.406;2023-06-24T09:51:04;102543.28;;;24.37;51.66
79540;BME280;68991;52.122;5.406;2023-06-24T09:53:32;102546.66;;;24.41;51.92
79540;BME280;68991;52.122;5.406;2023-06-24T09:56:04;102537.28;;;24.43;51.82
79540;BME280;68991;52.122;5.406;2023-06-24T09:58:34;102537.00;;;24.46;51.58
79540;BME280;68991;52.122;5.406;2023-06-24T10:01:03;102532.13;;;24.50;51.32
79540;BME280;68991;52.122;5.406;2023-06-24T10:03:33;102535.50;;;24.53;51.42
79540;BME280;68991;52.122;5.406;2023-06-24T10:06:02;102535.41;;;24.55;51.56
79540;BME280;68991;52.122;5.406;2023-06-24T10:08:30;102536.03;;;24.58;51.65
79540;BME280;68991;52.122;5.406;2023-06-24T10:10:56;102538.53;;;24.61;51.32
79540;BME280;68991;52.122;5.406;2023-06-24T10:13:23;102531.00;;;24.63;51.19
79540;BME280;68991;52.122;5.406;2023-06-24T10:15:50;102530.75;;;24.66;51.25
79540;BME280;68991;52.122;5.406;2023-06-24T10:18:36;102528.63;;;24.70;51.30
79540;BME280;68991;52.122;5.406;2023-06-24T10:21:05;102533.88;;;24.73;50.83
79540;BME280;68991;52.122;5.406;2023-06-24T10:23:43;102531.88;;;24.75;50.72
79540;BME280;68991;52.122;5.406;2023-06-24T10:26:28;102528.75;;;24.80;50.85
79540;BME280;68991;52.122;5.406;2023-06-24T10:36:58;102515.59;;;24.94;50.71
79540;BME280;68991;52.122;5.406;2023-06-24T10:39:55;102515.22;;;24.99;50.59
79540;BME280;68991;52.122;5.406;2023-06-24T10:42:30;102525.50;;;24.97;50.72
79540;BME280;68991;52.122;5.406;2023-06-24T10:44:58;102522.75;;;24.97;50.93
79540;BME280;68991;52.122;5.406;2023-06-24T10:47:27;102515.09;;;25.00;50.36
79540;BME280;68991;52.122;5.406;2023-06-24T10:49:54;102510.06;;;25.05;50.38
79540;BME280;68991;52.122;5.406;2023-06-24T10:52:22;102512.44;;;25.10;50.44
79540;BME280;68991;52.122;5.406;2023-06-24T10:54:50;102503.81;;;25.14;50.40
79540;BME280;68991;52.122;5.406;2023-06-24T10:57:23;102503.94;;;25.13;50.19
79540;BME280;68991;52.122;5.406;2023-06-24T10:59:52;102507.56;;;25.13;49.98
79540;BME280;68991;52.122;5.406;2023-06-24T11:02:20;102513.19;;;25.12;50.19
79540;BME280;68991;52.122;5.406;2023-06-24T11:04:48;102503.19;;;25.11;50.53
79540;BME280;68991;52.122;5.406;2023-06-24T11:07:17;102499.03;;;25.16;50.35
79540;BME280;68991;52.122;5.406;2023-06-24T11:10:01;102493.88;;;25.23;50.14
79540;BME280;68991;52.122;5.406;2023-06-24T11:12:36;102493.38;;;25.29;50.09
79540;BME280;68991;52.122;5.406;2023-06-24T11:15:05;102495.09;;;25.30;49.70
79540;BME280;68991;52.122;5.406;2023-06-24T11:17:35;102487.25;;;25.25;50.41
79540;BME280;68991;52.122;5.406;2023-06-24T11:20:09;102493.88;;;25.23;50.05
79540;BME280;68991;52.122;5.406;2023-06-24T11:22:36;102498.50;;;25.22;50.25
79540;BME280;68991;52.122;5.406;2023-06-24T11:25:03;102492.25;;;25.20;50.14
79540;BME280;68991;52.122;5.406;2023-06-24T11:27:31;102505.16;;;25.20;50.28
79540;BME280;68991;52.122;5.406;2023-06-24T11:29:59;102495.34;;;25.27;50.40
79540;BME280;68991;52.122;5.406;2023-06-24T11:32:46;102493.59;;;25.26;50.21
79540;BME280;68991;52.122;5.406;2023-06-24T11:35:14;102490.72;;;25.27;50.02
79540;BME280;68991;52.122;5.406;2023-06-24T11:37:46;102490.63;;;25.29;50.45
79540;BME280;68991;52.122;5.406;2023-06-24T11:40:13;102488.06;;;25.37;50.16
79540;BME280;68991;52.122;5.406;2023-06-24T11:42:42;102480.88;;;25.46;49.82
79540;BME280;68991;52.122;5.406;2023-06-24T11:45:14;102478.50;;;25.52;50.13
79540;BME280;68991;52.122;5.406;2023-06-24T11:47:42;102471.56;;;25.58;49.49
79540;BME280;68991;52.122;5.406;2023-06-24T11:50:09;102482.59;;;25.58;49.87
79540;BME280;68991;52.122;5.406;2023-06-24T11:55:16;102477.50;;;25.53;50.14
79540;BME280;68991;52.122;5.406;2023-06-24T11:58:03;102480.50;;;25.50;49.94
79540;BME280;68991;52.122;5.406;2023-06-24T12:00:32;102476.75;;;25.51;50.14
79540;BME280;68991;52.122;5.406;2023-06-24T12:03:02;102479.63;;;25.50;50.17
79540;BME280;68991;52.122;5.406;2023-06-24T12:05:34;102475.22;;;25.47;50.17
79540;BME280;68991;52.122;5.406;2023-06-24T12:08:03;102470.75;;;25.46;50.35
79540;BME280;68991;52.122;5.406;2023-06-24T12:10:31;102467.13;;;25.46;50.11
79540;BME280;68991;52.122;5.406;2023-06-24T12:13:03;102464.47;;;25.44;50.39
79540;BME280;68991;52.122;5.406;2023-06-24T12:15:32;102472.03;;;25.42;50.11
79540;BME280;68991;52.122;5.406;2023-06-24T12:17:59;102468.50;;;25.40;50.16
79540;BME280;68991;52.122;5.406;2023-06-24T12:20:26;102464.91;;;25.40;50.24
79540;BME280;68991;52.122;5.406;2023-06-24T12:22:56;102464.16;;;25.38;50.25
79540;BME280;68991;52.122;5.406;2023-06-24T12:25:23;102468.78;;;25.37;50.39
79540;BME280;68991;52.122;5.406;2023-06-24T12:27:50;102460.66;;;25.36;50.56
79540;BME280;68991;52.122;5.406;2023-06-24T12:30:16;102462.53;;;25.35;50.42
79540;BME280;68991;52.122;5.406;2023-06-24T12:32:43;102456.16;;;25.35;50.40
79540;BME280;68991;52.122;5.406;2023-06-24T12:35:11;102468.16;;;25.34;50.43
79540;BME280;68991;52.122;5.406;2023-06-24T12:37:37;102457.31;;;25.32;50.43
79540;BME280;68991;52.122;5.406;2023-06-24T12:40:04;102460.06;;;25.32;50.79
79540;BME280;68991;52.122;5.406;2023-06-24T12:42:31;102458.31;;;25.31;50.47
79540;BME280;68991;52.122;5.406;2023-06-24T12:44:58;102451.03;;;25.30;50.70
79540;BME280;68991;52.122;5.406;2023-06-24T12:47:25;102456.44;;;25.32;50.54
79540;BME280;68991;52.122;5.406;2023-06-24T12:49:52;102448.16;;;25.32;50.26
79540;BME280;68991;52.122;5.406;2023-06-24T12:52:19;102448.16;;;25.32;50.41
79540;BME280;68991;52.122;5.406;2023-06-24T12:54:45;102444.41;;;25.33;50.31
79540;BME280;68991;52.122;5.406;2023-06-24T12:57:12;102445.25;;;25.33;50.68
79540;BME280;68991;52.122;5.406;2023-06-24T12:59:40;102434.25;;;25.33;50.32
79540;BME280;68991;52.122;5.406;2023-06-24T13:02:07;102441.50;;;25.34;50.83
79540;BME280;68991;52.122;5.406;2023-06-24T13:04:33;102430.50;;;25.34;50.80
79540;BME280;68991;52.122;5.406;2023-06-24T13:07:00;102431.38;;;25.35;50.84
79540;BME280;68991;52.122;5.406;2023-06-24T13:09:27;102438.63;;;25.36;50.66
79540;BME280;68991;52.122;5.406;2023-06-24T13:11:53;102435.00;;;25.35;50.87
79540;BME280;68991;52.122;5.406;2023-06-24T13:14:19;102431.38;;;25.35;50.70
79540;BME280;68991;52.122;5.406;2023-06-24T13:16:46;102441.50;;;25.34;50.71
79540;BME280;68991;52.122;5.406;2023-06-24T13:19:12;102432.38;;;25.34;50.92
79540;BME280;68991;52.122;5.406;2023-06-24T13:21:42;102427.91;;;25.33;50.82